createdAt,value
2018-07-11T00:01:56.053Z,88.78
2018-07-11T00:04:24.696Z,88.59
2018-07-11T00:06:52.799Z,88.76
2018-07-11T00:09:21.996Z,89.63
2018-07-11T00:11:50.460Z,89.25
2018-07-11T00:14:18.543Z,88.87
2018-07-11T00:16:52.132Z,89.45
2018-07-11T00:19:21.695Z,90.07
2018-07-11T00:21:50.019Z,89.83
2018-07-11T00:24:18.684Z,90.14
2018-07-11T00:26:47.035Z,90.11
2018-07-11T00:29:15.604Z,90.63
2018-07-11T00:31:43.943Z,90.08
2018-07-11T00:34:12.528Z,89.86
2018-07-11T00:36:41.373Z,89.57
2018-07-11T00:39:09.720Z,89.76
2018-07-11T00:41:38.093Z,89.82
2018-07-11T00:44:06.617Z,89.71
2018-07-11T00:46:34.955Z,89.58
2018-07-11T00:49:03.595Z,89.37
2018-07-11T00:51:31.924Z,89.74
2018-07-11T00:54:00.280Z,89.50
2018-07-11T00:56:28.819Z,89.68
2018-07-11T00:59:03.231Z,90.55
2018-07-11T01:01:31.927Z,89.45
2018-07-11T01:04:01.213Z,89.41
2018-07-11T01:06:30.070Z,89.82
2018-07-11T01:08:59.240Z,90.40
2018-07-11T01:11:32.260Z,90.22
2018-07-11T01:14:00.452Z,90.35
2018-07-11T01:16:29.641Z,90.86
2018-07-11T01:19:00.030Z,90.39
2018-07-11T01:21:29.580Z,90.40
2018-07-11T01:23:58.016Z,90.46
2018-07-11T01:26:28.065Z,90.94
2018-07-11T01:28:56.871Z,91.16
2018-07-11T01:31:26.124Z,91.27
2018-07-11T01:33:54.859Z,91.52
2018-07-11T01:36:23.728Z,90.75
2018-07-11T01:38:52.301Z,91.55
2018-07-11T01:41:22.259Z,90.55
2018-07-11T01:43:51.278Z,91.25
2018-07-11T01:46:19.513Z,90.81
2018-07-11T01:48:47.928Z,90.62
2018-07-11T01:51:16.267Z,90.44
2018-07-11T01:53:44.870Z,90.61
2018-07-11T01:56:13.744Z,90.54
2018-07-11T01:58:44.010Z,90.91
2018-07-11T02:01:12.728Z,90.78
2018-07-11T02:03:41.121Z,90.60
2018-07-11T02:06:09.743Z,90.93
2018-07-11T02:08:38.321Z,91.04
2018-07-11T02:11:06.636Z,91.43
2018-07-11T02:13:35.160Z,91.29
2018-07-11T02:16:03.531Z,90.64
2018-07-11T02:18:31.848Z,90.77
2018-07-11T02:21:00.228Z,90.39
2018-07-11T02:23:38.835Z,90.90
2018-07-11T02:26:07.206Z,90.88
2018-07-11T02:28:36.111Z,90.52
2018-07-11T02:31:04.508Z,90.58
2018-07-11T02:33:33.160Z,90.72
2018-07-11T02:36:01.951Z,90.34
2018-07-11T02:38:30.541Z,90.93
2018-07-11T02:40:58.933Z,90.21
2018-07-11T02:43:27.573Z,90.76
2018-07-11T02:45:55.921Z,90.41
2018-07-11T02:48:24.300Z,90.14
2018-07-11T02:50:52.957Z,90.74
2018-07-11T02:53:23.823Z,90.74
2018-07-11T02:55:52.880Z,90.78
2018-07-11T02:58:22.126Z,91.05
2018-07-11T03:00:51.036Z,91.06
2018-07-11T03:03:19.345Z,91.34
2018-07-11T03:05:47.803Z,90.99
2018-07-11T03:08:16.963Z,91.34
2018-07-11T03:10:46.238Z,90.95
2018-07-11T03:13:16.040Z,90.96
2018-07-11T03:15:44.472Z,90.26
2018-07-11T03:18:13.136Z,90.48
2018-07-11T03:20:41.295Z,90.68
2018-07-11T03:23:10.093Z,91.72
2018-07-11T03:25:38.484Z,91.87
2018-07-11T03:28:07.249Z,92.04
2018-07-11T03:30:35.980Z,91.71
2018-07-11T03:33:04.416Z,91.99
2018-07-11T03:35:32.837Z,91.46
2018-07-11T03:38:01.168Z,92.18
2018-07-11T03:40:29.888Z,91.36
2018-07-11T03:42:58.650Z,91.60
2018-07-11T03:45:27.136Z,91.30
2018-07-11T03:47:55.288Z,91.63
2018-07-11T03:50:24.042Z,92.08
2018-07-11T03:52:52.375Z,92.26
2018-07-11T03:55:20.480Z,92.78
2018-07-11T03:57:49.292Z,92.42
2018-07-11T04:00:17.416Z,92.67
2018-07-11T04:02:45.831Z,92.83
2018-07-11T04:05:14.001Z,92.86
2018-07-11T04:07:42.680Z,92.58
2018-07-11T04:10:11.347Z,92.93
2018-07-11T04:12:39.570Z,92.89
2018-07-11T04:15:07.952Z,92.94
2018-07-11T04:17:36.181Z,93.00
2018-07-11T04:20:04.285Z,92.99
2018-07-11T04:22:32.732Z,92.89
2018-07-11T04:25:01.024Z,92.74
2018-07-11T04:27:29.285Z,92.59
2018-07-11T04:29:57.648Z,93.03
2018-07-11T04:32:26.451Z,92.25
2018-07-11T04:34:55.056Z,92.17
2018-07-11T04:37:23.603Z,92.84
2018-07-11T04:39:52.264Z,92.75
2018-07-11T04:52:05.584Z,93.90
2018-07-11T04:54:34.263Z,93.68
2018-07-11T04:57:02.629Z,92.97
2018-07-11T04:59:31.375Z,92.76
2018-07-11T05:01:59.715Z,90.32
2018-07-11T05:04:28.564Z,90.25
2018-07-11T05:06:57.322Z,90.93
2018-07-11T05:09:25.760Z,91.01
2018-07-11T05:11:53.995Z,91.74
2018-07-11T05:14:22.380Z,91.30
2018-07-11T05:16:50.975Z,92.14
2018-07-11T05:19:19.403Z,92.73
2018-07-11T05:21:47.852Z,92.08
2018-07-11T05:24:16.372Z,91.85
2018-07-11T05:26:44.815Z,91.75
2018-07-11T05:29:13.905Z,92.18
2018-07-11T05:31:42.216Z,92.22
2018-07-11T05:34:16.117Z,91.89
2018-07-11T05:36:44.220Z,91.80
2018-07-11T05:39:12.331Z,91.76
2018-07-11T05:41:41.049Z,91.92
2018-07-11T05:44:09.695Z,91.37
2018-07-11T05:46:38.552Z,91.45
2018-07-11T05:49:06.990Z,91.77
2018-07-11T05:51:35.749Z,91.32
2018-07-11T05:54:03.842Z,91.14
2018-07-11T05:56:32.900Z,91.26
2018-07-11T05:59:01.619Z,90.72
2018-07-11T06:01:30.096Z,90.60
2018-07-11T06:03:58.358Z,91.21
2018-07-11T06:06:26.677Z,91.28
2018-07-11T06:08:55.101Z,91.67
2018-07-11T06:11:25.049Z,91.13
2018-07-11T06:13:54.179Z,92.14
2018-07-11T06:16:23.370Z,92.10
2018-07-11T06:18:51.649Z,92.26
2018-07-11T06:21:22.790Z,92.88
2018-07-11T06:23:51.936Z,93.19
2018-07-11T06:26:20.359Z,92.70
2018-07-11T06:28:48.826Z,92.54
2018-07-11T06:31:17.028Z,92.29
2018-07-11T06:33:45.752Z,92.75
2018-07-11T06:36:14.316Z,92.77
2018-07-11T06:38:42.407Z,92.42
2018-07-11T06:41:10.861Z,92.47
2018-07-11T06:43:38.971Z,93.15
2018-07-11T06:46:07.853Z,92.92
2018-07-11T06:48:36.327Z,93.48
2018-07-11T06:51:05.196Z,92.90
2018-07-11T06:53:33.944Z,93.02
2018-07-11T06:56:02.660Z,93.31
2018-07-11T06:58:30.936Z,93.64
2018-07-11T07:00:59.353Z,93.76
2018-07-11T07:03:28.112Z,93.53
2018-07-11T07:05:57.020Z,93.85
2018-07-11T07:08:25.755Z,93.63
2018-07-11T07:10:53.844Z,93.60
2018-07-11T07:13:23.259Z,93.10
2018-07-11T07:15:51.793Z,92.51
2018-07-11T07:18:19.926Z,92.02
2018-07-11T07:20:48.350Z,92.55
2018-07-11T07:23:17.012Z,91.69
2018-07-11T07:25:45.721Z,91.46
2018-07-11T07:28:13.872Z,91.66
2018-07-11T07:30:41.956Z,91.72
2018-07-11T07:33:10.421Z,91.68
2018-07-11T07:35:39.116Z,92.46
2018-07-11T07:38:07.843Z,92.20
2018-07-11T07:40:36.389Z,92.29
2018-07-11T07:43:05.328Z,92.52
2018-07-11T07:45:33.992Z,92.52
2018-07-11T07:48:02.178Z,91.96
2018-07-11T07:50:31.004Z,91.52
2018-07-11T07:53:00.149Z,91.84
2018-07-11T07:55:28.697Z,92.04
2018-07-11T07:57:57.043Z,91.88
2018-07-11T08:00:25.136Z,93.13
2018-07-11T08:02:53.534Z,92.67
2018-07-11T08:05:23.044Z,92.76
2018-07-11T08:07:51.557Z,93.39
2018-07-11T08:10:20.159Z,94.14
2018-07-11T08:12:48.883Z,94.01
2018-07-11T08:15:17.192Z,94.00
2018-07-11T08:17:45.931Z,93.80
2018-07-11T08:20:14.359Z,94.67
2018-07-11T08:23:23.152Z,94.63
2018-07-11T08:26:03.669Z,94.07
2018-07-11T08:29:43.585Z,94.06
2018-07-11T08:32:54.456Z,94.08
2018-07-11T08:35:34.430Z,94.08
2018-07-11T08:40:29.338Z,94.49
2018-07-11T08:45:13.674Z,94.78
2018-07-11T08:52:03.620Z,96.46
2018-07-11T08:54:43.303Z,96.53
2018-07-11T08:57:23.120Z,96.71
2018-07-11T09:00:05.753Z,96.86
2018-07-11T09:05:16.860Z,96.63
2018-07-11T09:07:55.280Z,97.10
2018-07-11T09:11:40.312Z,97.51
2018-07-11T09:14:21.044Z,98.16
2018-07-11T09:17:07.760Z,98.48
2018-07-11T09:19:47.451Z,98.01
2018-07-11T09:22:24.983Z,98.57
2018-07-11T09:24:53.636Z,98.55
2018-07-11T09:27:23.545Z,98.27
2018-07-11T09:29:52.792Z,98.73
2018-07-11T09:32:20.916Z,97.82
2018-07-11T09:34:49.603Z,97.94
2018-07-11T09:37:18.388Z,98.36
2018-07-11T09:39:46.724Z,98.87
2018-07-11T09:42:15.167Z,98.59
2018-07-11T09:44:43.812Z,99.25
2018-07-11T09:47:17.488Z,99.50
2018-07-11T09:49:45.914Z,99.01
2018-07-11T09:52:14.051Z,99.44
2018-07-11T09:54:42.343Z,99.03
2018-07-11T09:57:11.108Z,99.05
2018-07-11T09:59:39.739Z,99.55
2018-07-11T10:02:07.996Z,99.75
2018-07-11T10:04:36.888Z,99.65
2018-07-11T10:07:05.668Z,100.00
2018-07-11T10:09:34.764Z,100.00
2018-07-11T10:12:03.196Z,100.00
2018-07-11T10:14:31.471Z,100.00
2018-07-11T10:17:00.159Z,100.00
2018-07-11T10:19:28.285Z,100.00
2018-07-11T10:21:56.392Z,100.00
2018-07-11T10:24:25.123Z,100.00
2018-07-11T10:26:53.979Z,100.00
2018-07-11T10:29:23.549Z,100.00
2018-07-11T10:31:52.488Z,100.00
2018-07-11T10:34:20.837Z,100.00
2018-07-11T10:36:48.968Z,100.00
2018-07-11T10:39:17.224Z,100.00
2018-07-11T10:41:45.676Z,99.93
2018-07-11T10:44:14.171Z,100.00
2018-07-11T10:46:42.592Z,100.00
2018-07-11T10:49:11.623Z,100.00
2018-07-11T10:51:39.738Z,100.00
2018-07-11T10:54:08.260Z,99.89
2018-07-11T10:56:36.451Z,99.98
2018-07-11T10:59:05.075Z,99.73
2018-07-11T11:01:33.490Z,99.99
2018-07-11T11:04:02.579Z,99.11
2018-07-11T11:06:31.748Z,98.40
2018-07-11T11:09:00.385Z,98.44
2018-07-11T11:11:29.076Z,98.15
2018-07-11T11:13:57.633Z,98.07
2018-07-11T11:16:26.463Z,97.90
2018-07-11T11:18:54.559Z,97.03
2018-07-11T11:21:23.706Z,96.30
2018-07-11T11:23:52.036Z,96.94
2018-07-11T11:26:20.402Z,96.79
2018-07-11T11:28:48.597Z,95.34
2018-07-11T11:31:17.011Z,95.64
2018-07-11T11:33:45.380Z,94.73
2018-07-11T11:36:13.924Z,94.78
2018-07-11T11:38:42.887Z,94.71
2018-07-11T11:41:11.396Z,93.59
2018-07-11T11:43:40.104Z,93.91
2018-07-11T11:46:08.577Z,94.23
2018-07-11T11:48:37.279Z,94.72
2018-07-11T11:51:05.432Z,93.75
2018-07-11T11:53:33.547Z,94.04
2018-07-11T11:56:01.889Z,93.49
2018-07-11T11:58:30.504Z,93.57
2018-07-11T12:00:58.875Z,93.52
2018-07-11T12:03:27.708Z,91.78
2018-07-11T12:05:55.867Z,92.52
2018-07-11T12:08:24.623Z,90.78
2018-07-11T12:10:52.952Z,91.41
2018-07-11T12:13:21.556Z,91.98
2018-07-11T12:15:50.008Z,92.68
2018-07-11T12:18:18.715Z,91.02
2018-07-11T12:20:47.068Z,91.16
2018-07-11T12:23:15.260Z,91.76
2018-07-11T12:25:54.395Z,89.20
2018-07-11T12:28:23.836Z,88.17
2018-07-11T12:30:51.953Z,86.74
2018-07-11T12:33:20.603Z,85.53
2018-07-11T12:35:48.725Z,85.96
2018-07-11T12:38:17.072Z,85.54
2018-07-11T12:40:45.304Z,85.14
2018-07-11T12:43:13.656Z,86.18
2018-07-11T12:45:42.099Z,86.65
2018-07-11T12:48:15.821Z,86.86
2018-07-11T12:50:43.952Z,87.53
2018-07-11T12:53:12.361Z,88.94
2018-07-11T12:55:40.775Z,87.20
2018-07-11T12:58:09.202Z,88.32
2018-07-11T13:00:38.080Z,88.53
2018-07-11T13:03:06.420Z,89.08
2018-07-11T13:05:34.863Z,90.33
2018-07-11T13:08:03.208Z,90.25
2018-07-11T13:10:31.734Z,89.57
2018-07-11T13:13:00.408Z,90.66
2018-07-11T13:15:29.080Z,89.73
2018-07-11T13:17:57.804Z,89.72
2018-07-11T13:20:26.496Z,89.69
2018-07-11T13:22:54.877Z,90.07
2018-07-11T13:25:24.206Z,90.73
2018-07-11T13:27:53.728Z,91.43
2018-07-11T13:30:22.483Z,90.47
2018-07-11T13:32:50.600Z,89.43
2018-07-11T13:35:18.940Z,88.83
2018-07-11T13:37:47.399Z,87.24
2018-07-11T13:40:15.498Z,86.06
2018-07-11T13:42:43.788Z,86.41
2018-07-11T13:45:12.243Z,86.82
2018-07-11T13:47:40.652Z,87.92
2018-07-11T13:50:08.740Z,85.70
2018-07-11T13:52:37.095Z,84.88
2018-07-11T13:55:05.788Z,84.70
2018-07-11T13:57:34.315Z,84.11
2018-07-11T14:00:03.054Z,85.04
2018-07-11T14:02:31.688Z,85.96
2018-07-11T14:05:00.120Z,86.74
2018-07-11T14:07:28.508Z,86.73
2018-07-11T14:09:57.053Z,87.69
2018-07-11T14:12:25.988Z,88.69
2018-07-11T14:14:54.649Z,87.97
2018-07-11T14:17:24.264Z,84.87
2018-07-11T14:19:52.904Z,83.50
2018-07-11T14:22:21.024Z,83.29
2018-07-11T14:24:49.342Z,83.69
2018-07-11T14:27:18.415Z,82.31
2018-07-11T14:29:46.919Z,82.94
2018-07-11T14:32:15.486Z,80.50
2018-07-11T14:34:43.808Z,80.80
2018-07-11T14:37:11.908Z,79.04
2018-07-11T14:39:40.292Z,77.66
2018-07-11T14:42:08.761Z,76.66
2018-07-11T14:44:37.348Z,76.59
2018-07-11T14:47:09.920Z,76.96
2018-07-11T14:49:38.300Z,76.92
2018-07-11T14:52:07.089Z,77.38
2018-07-11T14:54:35.976Z,77.44
2018-07-11T14:57:04.355Z,78.46
2018-07-11T14:59:32.958Z,77.59
2018-07-11T15:02:01.593Z,77.41
2018-07-11T15:04:29.933Z,76.63
2018-07-11T15:06:58.216Z,75.51
2018-07-11T15:09:26.816Z,75.75
2018-07-11T15:11:55.261Z,75.23
2018-07-11T15:14:24.156Z,74.37
2018-07-11T15:16:52.280Z,74.68
2018-07-11T15:19:20.986Z,75.05
2018-07-11T15:21:49.320Z,76.40
2018-07-11T15:24:18.153Z,75.85
2018-07-11T15:26:46.844Z,76.61
2018-07-11T15:29:15.200Z,77.15
2018-07-11T15:31:43.544Z,77.86
2018-07-11T15:34:12.251Z,77.63
2018-07-11T15:36:41.149Z,78.53
2018-07-11T15:39:12.512Z,78.28
2018-07-11T15:41:41.125Z,78.91
2018-07-11T15:44:09.796Z,80.10
2018-07-11T15:46:38.249Z,79.62
2018-07-11T15:49:06.689Z,80.25
2018-07-11T15:51:35.504Z,79.96
2018-07-11T15:54:03.897Z,80.60
2018-07-11T15:56:32.410Z,80.23
2018-07-11T15:59:05.415Z,80.69
2018-07-11T16:01:37.328Z,81.05
2018-07-11T16:04:05.667Z,81.04
2018-07-11T16:06:34.295Z,81.22
2018-07-11T16:09:05.005Z,80.96
2018-07-11T16:11:33.589Z,80.54
2018-07-11T16:14:02.060Z,80.27
2018-07-11T16:16:30.404Z,81.59
2018-07-11T16:18:59.093Z,81.08
2018-07-11T16:21:27.798Z,81.01
2018-07-11T16:23:56.135Z,81.61
2018-07-11T16:26:24.409Z,81.65
2018-07-11T16:28:53.144Z,81.31
2018-07-11T16:31:21.504Z,80.80
2018-07-11T16:33:49.941Z,80.92
2018-07-11T16:36:18.025Z,81.75
2018-07-11T16:38:46.376Z,81.72
2018-07-11T16:41:14.736Z,81.76
2018-07-11T16:43:42.895Z,81.62
2018-07-11T16:46:11.583Z,82.03
2018-07-11T16:48:40.889Z,80.83
2018-07-11T16:51:09.204Z,81.66
2018-07-11T16:53:38.881Z,81.72
2018-07-11T16:56:07.468Z,81.47
2018-07-11T16:58:41.403Z,82.09
2018-07-11T17:01:09.760Z,81.56
2018-07-11T17:03:40.585Z,81.48
2018-07-11T17:06:09.661Z,81.80
2018-07-11T17:08:43.818Z,82.91
2018-07-11T17:11:18.032Z,82.39
2018-07-11T17:13:52.952Z,82.13
2018-07-11T17:16:24.204Z,82.26
2018-07-11T17:18:56.220Z,82.88
2018-07-11T17:21:30.323Z,82.79
2018-07-11T17:24:03.887Z,83.33
2018-07-11T17:26:32.529Z,83.63
2018-07-11T17:29:01.371Z,83.96
2018-07-11T17:31:30.120Z,84.06
2018-07-11T17:33:58.935Z,84.21
2018-07-11T17:36:29.821Z,84.36
2018-07-11T17:38:58.164Z,84.03
2018-07-11T17:41:26.657Z,85.33
2018-07-11T17:43:55.380Z,84.14
2018-07-11T17:46:24.984Z,84.35
2018-07-11T17:49:06.201Z,85.08
2018-07-11T17:51:45.932Z,84.68
2018-07-11T17:54:14.132Z,85.95
2018-07-11T17:56:48.099Z,85.75
2018-07-11T17:59:16.268Z,85.84
2018-07-11T18:01:50.531Z,85.73
2018-07-11T18:04:30.680Z,86.17
2018-07-11T18:07:03.084Z,86.54
2018-07-11T18:09:39.600Z,86.10
2018-07-11T18:12:15.287Z,85.99
2018-07-11T18:16:58.952Z,85.45
2018-07-11T18:20:38.696Z,86.52
2018-07-11T18:23:19.658Z,86.33
2018-07-11T18:26:00.952Z,86.12
2018-07-11T18:28:40.232Z,86.75
2018-07-11T18:31:19.634Z,86.97
2018-07-11T18:35:31.131Z,87.99
2018-07-11T18:38:14.184Z,88.76
2018-07-11T18:40:53.542Z,88.37
2018-07-11T18:43:32.948Z,89.51
2018-07-11T18:46:17.158Z,89.72
2018-07-11T18:50:59.389Z,90.03
2018-07-11T18:53:50.340Z,90.20
2018-07-11T18:58:33.439Z,90.17
2018-07-11T19:01:09.536Z,90.22
2018-07-11T19:03:44.824Z,90.81
2018-07-11T19:07:19.568Z,90.66
2018-07-11T19:09:51.203Z,91.69
2018-07-11T19:12:27.072Z,90.80
2018-07-11T19:15:11.175Z,91.36
2018-07-11T19:17:55.749Z,91.74
2018-07-11T19:20:31.283Z,91.46
2018-07-11T19:23:11.448Z,92.26
2018-07-11T19:25:51.456Z,91.46
2018-07-11T19:29:01.869Z,90.95
2018-07-11T19:31:41.380Z,91.16
2018-07-11T19:34:20.024Z,91.82
2018-07-11T19:37:02.233Z,91.51
2018-07-11T19:41:50.860Z,91.64
2018-07-11T19:44:30.715Z,91.36
2018-07-11T19:48:36.500Z,91.55
2018-07-11T19:53:27.681Z,91.33
2018-07-11T19:56:05.753Z,92.08
2018-07-11T19:58:34.088Z,91.87
2018-07-11T20:01:02.493Z,91.69
2018-07-11T20:03:32.968Z,91.89
2018-07-11T20:06:01.289Z,91.36
2018-07-11T20:08:30.130Z,92.04
2018-07-11T20:10:58.425Z,91.50
2018-07-11T20:13:26.940Z,91.05
2018-07-11T20:15:55.594Z,91.65
2018-07-11T20:18:25.352Z,90.82
2018-07-11T20:20:53.827Z,91.06
2018-07-11T20:23:22.562Z,91.48
2018-07-11T20:25:51.519Z,91.12
2018-07-11T20:28:20.120Z,91.58
2018-07-11T20:30:49.398Z,91.95
2018-07-11T20:33:17.757Z,92.12
2018-07-11T20:35:46.184Z,91.95
2018-07-11T20:38:15.552Z,91.97
2018-07-11T20:40:43.888Z,92.07
2018-07-11T20:43:12.217Z,92.42
2018-07-11T20:45:49.649Z,92.03
2018-07-11T20:48:17.760Z,91.88
2018-07-11T20:50:46.057Z,91.68
2018-07-11T20:53:14.912Z,92.17
2018-07-11T20:55:43.564Z,91.37
2018-07-11T20:58:23.247Z,91.42
2018-07-11T21:03:12.109Z,91.42
2018-07-11T21:05:55.209Z,92.12
2018-07-11T21:08:34.923Z,92.38
2018-07-11T21:11:16.811Z,92.16
2018-07-11T21:15:59.578Z,91.96
2018-07-11T21:18:39.088Z,92.60
2018-07-11T21:21:07.542Z,92.35
2018-07-11T21:23:36.214Z,91.92
2018-07-11T21:26:05.114Z,91.87
2018-07-11T21:28:33.511Z,92.20
2018-07-11T21:31:01.652Z,92.45
2018-07-11T21:33:29.944Z,92.40
2018-07-11T21:35:58.471Z,91.77
2018-07-11T21:38:26.892Z,92.43
2018-07-11T21:40:55.567Z,92.11
2018-07-11T21:43:26.292Z,91.93
2018-07-11T21:45:54.852Z,92.52
2018-07-11T21:48:23.298Z,91.81
2018-07-11T21:50:52.051Z,91.84
2018-07-11T21:53:20.308Z,91.52
2018-07-11T21:55:48.726Z,91.94
2018-07-11T21:58:17.177Z,92.19
2018-07-11T22:00:45.725Z,92.03
2018-07-11T22:03:13.846Z,92.04
2018-07-11T22:05:42.307Z,92.84
2018-07-11T22:08:10.804Z,92.41
2018-07-11T22:10:39.915Z,93.13
2018-07-11T22:13:08.431Z,93.51
2018-07-11T22:15:37.108Z,93.15
2018-07-11T22:18:17.023Z,93.47
2018-07-11T22:20:44.377Z,92.65
2018-07-11T22:23:11.877Z,93.66
2018-07-11T22:25:39.369Z,93.28
2018-07-11T22:28:06.823Z,93.72
2018-07-11T22:30:34.115Z,93.88
2018-07-11T22:33:01.281Z,93.57
2018-07-11T22:35:28.428Z,93.94
2018-07-11T22:37:55.827Z,93.74
2018-07-11T22:40:24.195Z,93.72
2018-07-11T22:42:51.355Z,94.26
2018-07-11T22:45:18.757Z,94.05
2018-07-11T22:47:45.959Z,94.28
2018-07-11T22:50:13.124Z,94.33
2018-07-11T22:52:40.354Z,93.72
2018-07-11T22:55:07.944Z,93.45
2018-07-11T22:57:35.132Z,93.84
2018-07-11T23:00:02.295Z,94.70
2018-07-11T23:02:29.736Z,94.56
2018-07-11T23:04:57.227Z,94.46
2018-07-11T23:07:24.383Z,94.93
2018-07-11T23:09:51.964Z,94.90
2018-07-11T23:12:19.304Z,94.47
2018-07-11T23:14:46.764Z,94.85
2018-07-11T23:17:14.035Z,94.71
2018-07-11T23:19:41.185Z,94.56
2018-07-11T23:22:08.351Z,94.46
2018-07-11T23:24:36.026Z,94.29
2018-07-11T23:27:03.177Z,94.07
2018-07-11T23:29:30.732Z,93.38
2018-07-11T23:31:58.099Z,94.06
2018-07-11T23:34:25.319Z,93.98
2018-07-11T23:36:52.944Z,93.55
2018-07-11T23:39:20.111Z,93.58
2018-07-11T23:41:47.269Z,92.92
2018-07-11T23:44:14.455Z,93.36
2018-07-11T23:46:41.896Z,93.49
2018-07-11T23:49:09.071Z,92.98
2018-07-11T23:51:36.248Z,93.86
2018-07-11T23:54:03.415Z,93.58
2018-07-11T23:56:30.876Z,94.14
2018-07-11T23:58:58.184Z,94.01
